Time;durP1;ratioP1;P1;durP2;ratioP2;P2;SDS_P1;SDS_P2;PMS_P1;PMS_P2;Temp;Humidity;BMP_temperature;BMP_pressure;BME280_temperature;BME280_humidity;BME280_pressure;Samples;Min_cycle;Max_cycle;Signal;HPM_P1;HPM_P2
2023/10/19 00:00:48;;;;;;;27.00;17.00;;;;;;;;;;4991148;28;20041;-86
2023/10/19 00:03:15;;;;;;;24.17;16.58;;;;;;;;;;5001376;28;20042;-86
2023/10/19 00:05:41;;;;;;;24.65;17.83;;;;;;;;;;5004132;28;20125;-83
2023/10/19 00:08:15;;;;;;;27.95;19.17;;;;;;;;;;5005214;28;20133;-82
2023/10/19 00:10:47;;;;;;;28.42;19.00;;;;;;;;;;4986074;28;20698;-85
2023/10/19 00:13:14;;;;;;;32.38;21.85;;;;;;;;;;4982327;28;20117;-83
2023/10/19 00:15:40;;;;;;;31.30;20.88;;;;;;;;;;5000039;28;20494;-83
2023/10/19 00:23:13;;;;;;;33.25;21.02;;;;;;;;;;5005028;28;20065;-84
2023/10/19 00:25:44;;;;;;;35.22;21.40;;;;;;;;;;4984288;28;20138;-84
2023/10/19 00:28:12;;;;;;;32.72;20.42;;;;;;;;;;4989556;28;21715;-86
2023/10/19 00:30:42;;;;;;;36.80;21.25;;;;;;;;;;4986675;28;20444;-83
2023/10/19 00:33:20;;;;;;;27.60;20.08;;;;;;;;;;5002449;28;20038;-83
2023/10/19 00:35:56;;;;;;;29.10;21.10;;;;;;;;;;4988951;28;20551;-84
2023/10/19 00:43:46;;;;;;;35.88;23.17;;;;;;;;;;5008076;28;20056;-83
2023/10/19 00:48:49;;;;;;;38.70;25.27;;;;;;;;;;4986609;28;20053;-83
2023/10/19 00:54:26;;;;;;;48.90;27.27;;;;;;;;;;5005959;28;20095;-85
2023/10/19 00:56:58;;;;;;;37.33;25.58;;;;;;;;;;5004386;28;20038;-86
2023/10/19 00:59:38;;;;;;;37.53;24.27;;;;;;;;;;4989810;28;20044;-85
2023/10/19 01:02:51;;;;;;;33.08;27.17;;;;;;;;;;5004249;28;20059;-84
2023/10/19 01:05:04;;;;;;;34.10;26.25;;;;;;;;;;4982150;28;20264;-86
2023/10/19 01:07:31;;;;;;;43.38;27.67;;;;;;;;;;4992213;28;20045;-86
2023/10/19 01:09:59;;;;;;;38.53;26.88;;;;;;;;;;4993446;28;20386;-85
2023/10/19 01:12:25;;;;;;;40.08;27.13;;;;;;;;;;5012138;28;20041;-85
2023/10/19 01:17:58;;;;;;;48.33;30.90;;;;;;;;;;5007860;28;20056;-89
2023/10/19 01:25:49;;;;;;;40.50;27.38;;;;;;;;;;4998163;28;20441;-85
2023/10/19 01:28:16;;;;;;;37.70;27.27;;;;;;;;;;4986489;28;20045;-87
2023/10/19 01:30:44;;;;;;;45.85;27.52;;;;;;;;;;4986529;28;20049;-86
2023/10/19 01:33:15;;;;;;;48.42;30.33;;;;;;;;;;5001522;28;20128;-86
2023/10/19 01:38:30;;;;;;;38.20;27.88;;;;;;;;;;4989672;28;20148;-86
2023/10/19 01:40:59;;;;;;;37.75;28.48;;;;;;;;;;5003933;28;20481;-86
2023/10/19 01:43:25;;;;;;;40.00;29.45;;;;;;;;;;4995131;28;20049;-85
2023/10/19 01:45:54;;;;;;;38.78;29.35;;;;;;;;;;5003290;28;20072;-85
2023/10/19 01:48:27;;;;;;;41.40;29.30;;;;;;;;;;5004921;28;20092;-84
2023/10/19 01:50:53;;;;;;;39.15;29.73;;;;;;;;;;4988371;28;20145;-85
2023/10/19 01:53:25;;;;;;;46.70;31.88;;;;;;;;;;4989615;28;20041;-85
2023/10/19 01:55:57;;;;;;;43.95;30.42;;;;;;;;;;4987232;28;20084;-85
2023/10/19 01:58:25;;;;;;;45.45;30.55;;;;;;;;;;4989550;28;20485;-83
2023/10/19 02:00:55;;;;;;;47.75;33.83;;;;;;;;;;4992685;28;20075;-84
2023/10/19 02:03:27;;;;;;;58.72;35.08;;;;;;;;;;4992241;28;20050;-83
2023/10/19 02:06:00;;;;;;;53.40;31.30;;;;;;;;;;4976195;28;20128;-83
2023/10/19 02:08:27;;;;;;;56.03;33.72;;;;;;;;;;5004142;28;20058;-83
2023/10/19 02:10:53;;;;;;;59.45;33.05;;;;;;;;;;5000419;28;20046;-83
2023/10/19 02:13:23;;;;;;;55.92;36.47;;;;;;;;;;5002289;28;20091;-86
2023/10/19 02:15:51;;;;;;;56.58;34.83;;;;;;;;;;5006704;28;20417;-84
2023/10/19 02:18:17;;;;;;;47.50;32.97;;;;;;;;;;4991777;28;20094;-82
2023/10/19 02:20:48;;;;;;;67.13;34.33;;;;;;;;;;4998740;28;20060;-85
2023/10/19 02:23:14;;;;;;;50.03;34.50;;;;;;;;;;4991772;28;20030;-84
2023/10/19 02:25:42;;;;;;;53.88;33.83;;;;;;;;;;5002306;28;20076;-84
2023/10/19 02:28:09;;;;;;;46.42;32.70;;;;;;;;;;4990638;28;20056;-83
2023/10/19 02:30:35;;;;;;;51.63;33.67;;;;;;;;;;5006542;28;20038;-84
2023/10/19 02:33:03;;;;;;;55.35;36.47;;;;;;;;;;4991450;28;20037;-84
2023/10/19 02:35:29;;;;;;;58.00;35.65;;;;;;;;;;5007294;28;20040;-89
2023/10/19 02:37:55;;;;;;;63.08;37.88;;;;;;;;;;5005437;28;20045;-86
2023/10/19 02:40:23;;;;;;;61.85;37.25;;;;;;;;;;4977806;28;20149;-86
2023/10/19 02:42:56;;;;;;;63.55;36.58;;;;;;;;;;5005204;28;20052;-85
2023/10/19 02:45:23;;;;;;;58.00;35.88;;;;;;;;;;5008939;28;20497;-88
2023/10/19 02:47:50;;;;;;;54.78;35.50;;;;;;;;;;5005548;28;20115;-89
2023/10/19 02:50:16;;;;;;;55.33;34.08;;;;;;;;;;4975925;28;20045;-88
2023/10/19 02:52:43;;;;;;;72.80;36.28;;;;;;;;;;4989646;28;21956;-88
2023/10/19 02:55:10;;;;;;;59.95;35.33;;;;;;;;;;4996435;28;20038;-83
2023/10/19 02:57:37;;;;;;;57.20;34.65;;;;;;;;;;4989648;28;20176;-82
2023/10/19 03:00:14;;;;;;;52.63;35.28;;;;;;;;;;4990375;28;20443;-82
2023/10/19 03:02:40;;;;;;;52.30;33.28;;;;;;;;;;4989845;28;20038;-84
2023/10/19 03:05:17;;;;;;;51.85;34.03;;;;;;;;;;5003754;28;20042;-86
2023/10/19 03:07:44;;;;;;;56.47;32.95;;;;;;;;;;4989132;28;20557;-82
2023/10/19 03:10:23;;;;;;;55.80;37.13;;;;;;;;;;5007340;28;20072;-84
2023/10/19 03:12:53;;;;;;;75.25;35.40;;;;;;;;;;5001909;28;20145;-82
2023/10/19 03:15:20;;;;;;;46.65;31.95;;;;;;;;;;4992261;28;20128;-83
2023/10/19 03:17:47;;;;;;;64.25;34.35;;;;;;;;;;4979775;28;20092;-83
2023/10/19 03:20:16;;;;;;;43.45;30.42;;;;;;;;;;4996070;28;20037;-83
2023/10/19 03:22:43;;;;;;;51.75;33.17;;;;;;;;;;4970133;28;20064;-83
2023/10/19 03:27:56;;;;;;;38.33;26.58;;;;;;;;;;5003419;28;24270;-83
2023/10/19 03:30:25;;;;;;;44.47;29.58;;;;;;;;;;4977417;28;20087;-85
2023/10/19 03:32:51;;;;;;;45.25;29.40;;;;;;;;;;5015849;28;20116;-84
2023/10/19 03:35:17;;;;;;;43.67;28.85;;;;;;;;;;5007094;28;20083;-83
2023/10/19 03:37:47;;;;;;;37.83;26.80;;;;;;;;;;4998859;28;20037;-83
2023/10/19 03:40:16;;;;;;;35.35;24.75;;;;;;;;;;4994994;28;20040;-83
2023/10/19 03:42:47;;;;;;;40.10;25.10;;;;;;;;;;5010923;28;20045;-83
2023/10/19 03:45:13;;;;;;;37.90;25.90;;;;;;;;;;4984060;28;20059;-88
2023/10/19 03:47:39;;;;;;;42.20;25.27;;;;;;;;;;4999548;28;20068;-86
2023/10/19 03:50:07;;;;;;;41.30;25.60;;;;;;;;;;4993756;28;20116;-89
2023/10/19 03:52:37;;;;;;;44.42;26.50;;;;;;;;;;4980068;28;20107;-87
2023/10/19 03:55:10;;;;;;;38.33;22.08;;;;;;;;;;5001206;28;20038;-86
2023/10/19 03:57:41;;;;;;;36.45;22.65;;;;;;;;;;5009463;28;20168;-87
2023/10/19 04:00:11;;;;;;;32.20;21.52;;;;;;;;;;4996012;28;20057;-88
2023/10/19 04:02:38;;;;;;;34.97;21.88;;;;;;;;;;4997738;28;20124;-88
2023/10/19 04:05:04;;;;;;;28.73;21.27;;;;;;;;;;4999111;28;20042;-87
2023/10/19 04:07:31;;;;;;;33.70;20.17;;;;;;;;;;4990562;28;20037;-85
2023/10/19 04:09:59;;;;;;;34.28;21.33;;;;;;;;;;4993378;28;20037;-85
2023/10/19 04:12:28;;;;;;;29.02;20.95;;;;;;;;;;5003947;28;20053;-85
2023/10/19 04:14:55;;;;;;;28.77;18.15;;;;;;;;;;4994613;28;20044;-84
2023/10/19 04:17:23;;;;;;;33.22;19.92;;;;;;;;;;4976474;28;20054;-86
2023/10/19 04:19:54;;;;;;;34.08;21.20;;;;;;;;;;4980063;28;20505;-85
2023/10/19 04:22:23;;;;;;;27.75;18.77;;;;;;;;;;4994736;28;20049;-85
2023/10/19 04:24:53;;;;;;;26.48;16.85;;;;;;;;;;5001601;28;20105;-85
2023/10/19 04:27:23;;;;;;;27.23;18.67;;;;;;;;;;5001787;28;20048;-85
2023/10/19 04:29:49;;;;;;;35.15;20.88;;;;;;;;;;4990109;28;20029;-84
2023/10/19 04:32:24;;;;;;;26.35;17.70;;;;;;;;;;4985650;28;20037;-84
2023/10/19 04:34:50;;;;;;;21.73;15.18;;;;;;;;;;4977344;28;20053;-85
2023/10/19 04:37:18;;;;;;;28.30;19.15;;;;;;;;;;5012218;28;20056;-84
2023/10/19 04:39:45;;;;;;;26.92;18.25;;;;;;;;;;4987061;28;20034;-85
2023/10/19 04:42:12;;;;;;;23.35;17.58;;;;;;;;;;5015317;28;20041;-85
2023/10/19 04:44:38;;;;;;;26.67;17.90;;;;;;;;;;4981673;28;20128;-84
2023/10/19 04:47:04;;;;;;;34.88;19.25;;;;;;;;;;4996769;28;20065;-87
2023/10/19 04:49:30;;;;;;;34.40;21.38;;;;;;;;;;5006403;28;20561;-84
2023/10/19 04:51:56;;;;;;;27.70;17.92;;;;;;;;;;4995413;28;20099;-84
2023/10/19 04:54:22;;;;;;;34.03;19.65;;;;;;;;;;5002710;28;20053;-84
2023/10/19 04:56:48;;;;;;;39.75;20.38;;;;;;;;;;4992091;28;20076;-83
2023/10/19 04:59:14;;;;;;;38.13;21.85;;;;;;;;;;5009617;28;20041;-84
2023/10/19 05:01:41;;;;;;;29.98;18.38;;;;;;;;;;4992292;28;20088;-87
2023/10/19 05:04:07;;;;;;;38.53;19.95;;;;;;;;;;4996752;28;20045;-86
2023/10/19 05:06:33;;;;;;;46.53;22.30;;;;;;;;;;4992037;28;20077;-84
2023/10/19 05:08:59;;;;;;;40.40;21.38;;;;;;;;;;4991930;28;20054;-86
2023/10/19 05:11:25;;;;;;;40.13;20.02;;;;;;;;;;4977679;28;20057;-86
2023/10/19 05:13:51;;;;;;;34.38;21.13;;;;;;;;;;5007460;28;20037;-86
2023/10/19 05:16:17;;;;;;;33.70;21.10;;;;;;;;;;4979716;28;20100;-84
2023/10/19 05:18:43;;;;;;;36.38;20.00;;;;;;;;;;5012648;28;20039;-85
2023/10/19 05:21:10;;;;;;;35.15;19.98;;;;;;;;;;5006954;28;20496;-84
2023/10/19 05:23:36;;;;;;;29.30;18.85;;;;;;;;;;4976053;28;20132;-82
2023/10/19 05:26:04;;;;;;;32.80;18.15;;;;;;;;;;4979857;28;20041;-85
2023/10/19 05:28:30;;;;;;;28.27;18.30;;;;;;;;;;4993498;28;20114;-85
2023/10/19 05:30:58;;;;;;;31.58;19.50;;;;;;;;;;4988233;28;20041;-83
2023/10/19 05:33:25;;;;;;;26.80;18.35;;;;;;;;;;4974895;28;20053;-84
2023/10/19 05:35:52;;;;;;;30.60;17.42;;;;;;;;;;5002590;28;20104;-85
2023/10/19 05:38:22;;;;;;;27.40;18.60;;;;;;;;;;4993930;28;20029;-84
2023/10/19 05:40:49;;;;;;;28.85;16.95;;;;;;;;;;4988801;28;20042;-84
2023/10/19 05:43:16;;;;;;;29.17;16.92;;;;;;;;;;4981398;28;20493;-84
2023/10/19 05:45:42;;;;;;;24.75;15.13;;;;;;;;;;4972017;28;20048;-85
2023/10/19 05:48:08;;;;;;;38.97;19.67;;;;;;;;;;4988058;28;20489;-84
2023/10/19 05:50:35;;;;;;;27.70;15.88;;;;;;;;;;4997857;28;20041;-83
2023/10/19 05:53:02;;;;;;;22.52;13.73;;;;;;;;;;5015536;28;20069;-84
2023/10/19 05:55:29;;;;;;;27.42;16.52;;;;;;;;;;4994698;28;20073;-83
2023/10/19 05:57:55;;;;;;;25.02;14.73;;;;;;;;;;5009502;28;20050;-86
2023/10/19 06:00:25;;;;;;;24.35;14.07;;;;;;;;;;4996710;28;20400;-85
2023/10/19 06:02:51;;;;;;;18.20;12.90;;;;;;;;;;5009474;28;20049;-83
2023/10/19 06:05:18;;;;;;;23.85;14.40;;;;;;;;;;4994893;28;20041;-89
2023/10/19 06:07:45;;;;;;;21.40;13.45;;;;;;;;;;5006938;28;20049;-84
2023/10/19 06:10:15;;;;;;;24.10;13.43;;;;;;;;;;5011357;28;20034;-83
2023/10/19 06:12:43;;;;;;;18.80;14.00;;;;;;;;;;4993635;28;20776;-83
2023/10/19 06:15:10;;;;;;;25.63;14.95;;;;;;;;;;5007550;28;20046;-83
2023/10/19 06:17:37;;;;;;;24.67;15.10;;;;;;;;;;5008725;28;20022;-84
2023/10/19 06:20:04;;;;;;;24.10;14.73;;;;;;;;;;5012945;28;20034;-85
2023/10/19 06:22:30;;;;;;;30.65;15.98;;;;;;;;;;4978294;28;20045;-87
2023/10/19 06:24:56;;;;;;;24.17;14.95;;;;;;;;;;4981527;28;20612;-84
2023/10/19 06:27:23;;;;;;;18.50;13.40;;;;;;;;;;4982230;28;20064;-82
2023/10/19 06:29:49;;;;;;;18.90;13.57;;;;;;;;;;4997696;28;20741;-86
2023/10/19 06:32:15;;;;;;;17.75;13.27;;;;;;;;;;5011846;28;20063;-85
2023/10/19 06:34:41;;;;;;;19.90;14.43;;;;;;;;;;4997242;28;20073;-86
2023/10/19 06:37:10;;;;;;;19.65;14.00;;;;;;;;;;4977062;28;20408;-86
2023/10/19 06:39:40;;;;;;;21.08;14.05;;;;;;;;;;4973239;28;20037;-85
2023/10/19 06:42:09;;;;;;;17.70;13.10;;;;;;;;;;4980891;28;20037;-84
2023/10/19 06:44:36;;;;;;;25.88;15.18;;;;;;;;;;4993839;28;20421;-85
2023/10/19 06:47:02;;;;;;;19.98;14.18;;;;;;;;;;4976076;28;20069;-81
2023/10/19 06:49:30;;;;;;;26.33;12.85;;;;;;;;;;4994341;28;20045;-82
2023/10/19 06:51:56;;;;;;;24.90;14.65;;;;;;;;;;4997205;28;20041;-82
2023/10/19 06:54:22;;;;;;;17.17;13.75;;;;;;;;;;4992895;28;20038;-82
2023/10/19 06:56:48;;;;;;;23.10;14.05;;;;;;;;;;4999399;28;20036;-83
2023/10/19 06:59:14;;;;;;;23.10;14.40;;;;;;;;;;5013959;28;20109;-82
2023/10/19 07:01:40;;;;;;;21.88;15.10;;;;;;;;;;4998343;28;20401;-82
2023/10/19 07:04:07;;;;;;;24.20;14.68;;;;;;;;;;4992755;28;20706;-84
2023/10/19 07:06:33;;;;;;;20.98;13.60;;;;;;;;;;4995698;28;20125;-82
2023/10/19 07:08:59;;;;;;;28.25;16.38;;;;;;;;;;4980361;28;20132;-82
2023/10/19 07:11:25;;;;;;;22.42;13.85;;;;;;;;;;5014264;28;20037;-82
2023/10/19 07:13:51;;;;;;;20.85;13.77;;;;;;;;;;4998439;28;20038;-82
2023/10/19 07:16:19;;;;;;;23.05;14.60;;;;;;;;;;5007704;28;20038;-81
2023/10/19 07:18:46;;;;;;;21.83;15.07;;;;;;;;;;4998461;28;21194;-80
2023/10/19 07:21:13;;;;;;;21.25;13.65;;;;;;;;;;4979982;28;20056;-83
2023/10/19 07:23:40;;;;;;;18.65;13.13;;;;;;;;;;4981603;28;20447;-81
2023/10/19 07:26:06;;;;;;;21.60;13.35;;;;;;;;;;4996867;28;20458;-81
2023/10/19 07:28:32;;;;;;;19.55;13.55;;;;;;;;;;4998432;28;20053;-83
2023/10/19 07:31:01;;;;;;;21.13;13.27;;;;;;;;;;5012255;28;20477;-82
2023/10/19 07:33:28;;;;;;;25.33;14.73;;;;;;;;;;4994047;28;20485;-83
2023/10/19 07:35:59;;;;;;;18.30;11.85;;;;;;;;;;5010142;28;20041;-81
2023/10/19 07:38:28;;;;;;;23.90;14.50;;;;;;;;;;4999126;28;20551;-80
2023/10/19 07:40:54;;;;;;;20.95;13.05;;;;;;;;;;4994747;28;20037;-81
2023/10/19 07:43:21;;;;;;;17.42;11.95;;;;;;;;;;5009758;28;20072;-82
2023/10/19 07:45:47;;;;;;;25.30;12.75;;;;;;;;;;4998842;28;20052;-81
2023/10/19 07:48:14;;;;;;;20.48;13.00;;;;;;;;;;5004257;28;20049;-82
2023/10/19 07:50:42;;;;;;;20.33;13.52;;;;;;;;;;5008444;28;20054;-82
2023/10/19 07:53:09;;;;;;;15.73;11.20;;;;;;;;;;5009919;28;20049;-83
2023/10/19 07:55:36;;;;;;;17.80;11.63;;;;;;;;;;4979826;28;20033;-82
2023/10/19 07:58:03;;;;;;;17.10;11.52;;;;;;;;;;5034262;28;20048;-81
2023/10/19 08:00:29;;;;;;;14.70;11.25;;;;;;;;;;4997181;28;20044;-81
2023/10/19 08:02:56;;;;;;;15.85;11.45;;;;;;;;;;4993225;28;20179;-86
2023/10/19 08:05:22;;;;;;;15.75;11.13;;;;;;;;;;5000661;28;20519;-86
2023/10/19 08:07:48;;;;;;;14.98;11.32;;;;;;;;;;5008579;28;20524;-87
2023/10/19 08:10:15;;;;;;;19.08;11.73;;;;;;;;;;4998852;28;20037;-87
2023/10/19 08:12:42;;;;;;;13.40;11.10;;;;;;;;;;4995810;28;20265;-87
2023/10/19 08:15:13;;;;;;;14.15;9.65;;;;;;;;;;5012950;28;20156;-86
2023/10/19 08:17:39;;;;;;;15.38;10.65;;;;;;;;;;4989185;28;20049;-87
2023/10/19 08:20:15;;;;;;;16.05;11.20;;;;;;;;;;5010396;28;20633;-86
2023/10/19 08:22:42;;;;;;;19.48;11.77;;;;;;;;;;5009172;28;20038;-88
2023/10/19 08:25:11;;;;;;;14.35;10.85;;;;;;;;;;4999493;28;20083;-85
2023/10/19 08:27:44;;;;;;;12.30;10.13;;;;;;;;;;5008826;28;20060;-85
2023/10/19 08:30:12;;;;;;;16.50;10.98;;;;;;;;;;5009054;28;20125;-85
2023/10/19 08:32:39;;;;;;;16.65;10.50;;;;;;;;;;5013448;28;20041;-85
2023/10/19 08:35:05;;;;;;;14.00;9.90;;;;;;;;;;5026768;28;20046;-85
2023/10/19 08:37:31;;;;;;;15.02;11.07;;;;;;;;;;5000253;28;20041;-85
2023/10/19 08:39:57;;;;;;;15.30;11.18;;;;;;;;;;4995424;28;20121;-85
2023/10/19 08:42:24;;;;;;;13.85;11.10;;;;;;;;;;4992756;28;20084;-85
2023/10/19 08:44:51;;;;;;;14.77;10.50;;;;;;;;;;5014564;28;20393;-85
2023/10/19 08:47:17;;;;;;;16.20;10.90;;;;;;;;;;4989270;28;20509;-86
2023/10/19 08:49:43;;;;;;;15.13;10.02;;;;;;;;;;5008034;28;20065;-86
2023/10/19 08:52:09;;;;;;;13.77;9.10;;;;;;;;;;4996590;28;20037;-86
2023/10/19 08:54:36;;;;;;;14.30;10.55;;;;;;;;;;4984361;28;20034;-86
2023/10/19 08:57:03;;;;;;;12.45;9.75;;;;;;;;;;4996827;28;20037;-89
2023/10/19 08:59:31;;;;;;;17.88;9.73;;;;;;;;;;4983333;28;20041;-87
2023/10/19 09:02:01;;;;;;;12.43;9.98;;;;;;;;;;5012849;28;20434;-85
2023/10/19 09:04:28;;;;;;;10.50;8.82;;;;;;;;;;5013039;28;20041;-89
2023/10/19 09:06:57;;;;;;;11.82;8.68;;;;;;;;;;4986529;28;20057;-89
2023/10/19 09:09:25;;;;;;;11.85;8.95;;;;;;;;;;5011288;28;20168;-88
2023/10/19 09:11:54;;;;;;;11.85;9.57;;;;;;;;;;4998175;28;20057;-88
2023/10/19 09:14:33;;;;;;;10.95;8.55;;;;;;;;;;4979933;28;20049;-89
2023/10/19 09:17:00;;;;;;;11.38;8.95;;;;;;;;;;4993520;28;20077;-87
2023/10/19 09:19:36;;;;;;;14.30;8.90;;;;;;;;;;4996834;28;20457;-88
2023/10/19 09:22:07;;;;;;;13.07;9.85;;;;;;;;;;5006283;28;20040;-88
2023/10/19 09:24:37;;;;;;;13.98;10.73;;;;;;;;;;4989097;28;20044;-89
2023/10/19 09:27:07;;;;;;;11.25;8.98;;;;;;;;;;5025333;28;20116;-89
2023/10/19 09:29:34;;;;;;;10.48;9.18;;;;;;;;;;5001379;28;20069;-88
2023/10/19 09:32:03;;;;;;;17.25;10.45;;;;;;;;;;5003723;28;20040;-88
2023/10/19 09:34:33;;;;;;;13.85;9.98;;;;;;;;;;4995681;28;20042;-87
2023/10/19 09:37:03;;;;;;;13.88;10.40;;;;;;;;;;4996834;28;20033;-88
2023/10/19 09:39:36;;;;;;;12.60;9.75;;;;;;;;;;4998139;28;20481;-89
2023/10/19 09:42:06;;;;;;;13.23;9.93;;;;;;;;;;5001382;28;20033;-88
2023/10/19 09:44:41;;;;;;;13.00;10.85;;;;;;;;;;4991840;28;20046;-82
2023/10/19 09:47:19;;;;;;;13.30;9.63;;;;;;;;;;5009804;28;20056;-87
2023/10/19 09:49:45;;;;;;;11.40;9.88;;;;;;;;;;4998059;28;20038;-87
2023/10/19 09:52:14;;;;;;;10.07;8.27;;;;;;;;;;4999918;28;20053;-87
2023/10/19 09:54:59;;;;;;;9.95;8.55;;;;;;;;;;4999681;28;20124;-87
2023/10/19 09:57:31;;;;;;;10.93;9.80;;;;;;;;;;5016712;28;20041;-87
2023/10/19 10:00:07;;;;;;;12.95;9.70;;;;;;;;;;5001342;28;20037;-86
2023/10/19 10:02:34;;;;;;;10.50;8.57;;;;;;;;;;4999809;28;20033;-85
2023/10/19 10:05:00;;;;;;;13.18;9.35;;;;;;;;;;4988444;28;20515;-85
2023/10/19 10:07:26;;;;;;;11.10;8.65;;;;;;;;;;4986332;28;20041;-85
2023/10/19 10:09:53;;;;;;;8.52;7.50;;;;;;;;;;4982497;28;20047;-85
2023/10/19 10:12:19;;;;;;;10.48;9.13;;;;;;;;;;4996502;28;20493;-86
2023/10/19 10:14:59;;;;;;;12.98;8.68;;;;;;;;;;5001805;28;20042;-86
2023/10/19 10:17:29;;;;;;;9.93;8.95;;;;;;;;;;5011524;28;20116;-86
2023/10/19 10:19:59;;;;;;;14.32;10.25;;;;;;;;;;5008576;28;20087;-86
2023/10/19 10:22:27;;;;;;;11.82;9.90;;;;;;;;;;5006979;28;20038;-85
2023/10/19 10:24:56;;;;;;;10.43;9.35;;;;;;;;;;5007801;28;20091;-86
2023/10/19 10:27:23;;;;;;;12.98;9.43;;;;;;;;;;5029518;28;20548;-86
2023/10/19 10:29:55;;;;;;;9.75;8.40;;;;;;;;;;4997019;28;20037;-85
2023/10/19 10:32:41;;;;;;;11.32;9.02;;;;;;;;;;5008556;28;20076;-86
2023/10/19 10:35:07;;;;;;;11.75;9.43;;;;;;;;;;5004402;28;20038;-86
2023/10/19 10:37:37;;;;;;;10.60;9.13;;;;;;;;;;5019391;28;20064;-86
2023/10/19 10:40:05;;;;;;;11.27;9.02;;;;;;;;;;5007672;28;20045;-86
2023/10/19 10:42:31;;;;;;;15.77;9.43;;;;;;;;;;5002402;28;20788;-86
2023/10/19 10:44:58;;;;;;;14.00;9.55;;;;;;;;;;5003412;28;20049;-86
2023/10/19 10:47:29;;;;;;;10.20;8.95;;;;;;;;;;5007470;28;20132;-86
2023/10/19 10:50:00;;;;;;;13.82;9.90;;;;;;;;;;4993716;28;20042;-87
2023/10/19 10:52:36;;;;;;;10.38;8.52;;;;;;;;;;4995952;28;20503;-86
2023/10/19 10:55:12;;;;;;;10.63;7.88;;;;;;;;;;5026621;28;20041;-87
2023/10/19 10:57:39;;;;;;;12.15;8.02;;;;;;;;;;5011402;28;20106;-85
2023/10/19 11:00:15;;;;;;;11.98;8.73;;;;;;;;;;5008087;28;20029;-86
2023/10/19 11:02:49;;;;;;;14.50;10.65;;;;;;;;;;5004047;28;20120;-86
2023/10/19 11:05:16;;;;;;;;;;;9.30;99.90;;;;;;4997809;28;20037;-85
2023/10/19 11:08:02;;;;;;;12.75;9.07;;;;;;;;;;5014760;28;19916;-85
2023/10/19 11:10:32;;;;;;;14.98;10.73;;;;;;;;;;5011841;28;20168;-85
2023/10/19 11:13:05;;;;;;;13.23;10.43;;;;;;;;;;5009427;28;20021;-86
2023/10/19 11:15:32;;;;;;;11.10;9.20;;;;;;;;;;5023476;28;20126;-86
2023/10/19 11:17:59;;;;;;;10.65;7.82;;;;;;;;;;5005516;28;20496;-85
2023/10/19 11:20:27;;;;;;;11.38;8.45;;;;;;;;;;4996514;28;20033;-86
2023/10/19 11:22:55;;;;;;;12.10;8.50;;;;;;;;;;5013062;28;20705;-84
2023/10/19 11:25:29;;;;;;;10.30;7.13;;;;;;;;;;5029464;28;20171;-85
2023/10/19 11:27:56;;;;;;;8.13;7.13;;;;;;;;;;5008657;28;20076;-85
2023/10/19 11:30:26;;;;;;;9.15;7.75;;;;;;;;;;4997779;28;20095;-84
2023/10/19 11:32:59;;;;;;;8.05;6.70;;;;;;;;;;4982460;28;20102;-85
2023/10/19 11:35:27;;;;;;;10.10;7.28;;;;;;;;;;5005722;28;20505;-85
2023/10/19 11:37:54;;;;;;;9.80;7.32;;;;;;;;;;4987005;28;20038;-85
2023/10/19 11:40:21;;;;;;;9.13;7.22;;;;;;;;;;5006531;28;20036;-89
2023/10/19 11:42:48;;;;;;;7.45;6.60;;;;;;;;;;5021005;28;20041;-86
2023/10/19 11:45:14;;;;;;;8.90;6.70;;;;;;;;;;4996585;28;20041;-86
2023/10/19 11:47:41;;;;;;;8.95;7.88;;;;;;;;;;4998781;28;20064;-87
2023/10/19 11:50:07;;;;;;;10.20;7.95;;;;;;;;;;4986865;28;20437;-87
2023/10/19 11:52:33;;;;;;;14.60;9.63;;;;;;;;;;5006132;28;20039;-88
2023/10/19 11:54:59;;;;;;;10.18;9.05;;;;;;;;;;5015497;28;20111;-87
2023/10/19 11:57:26;;;;;;;8.93;7.18;;;;;;;;;;5002055;28;20053;-87
2023/10/19 11:59:52;;;;;;;8.10;7.28;;;;;;;;;;5031128;28;20408;-88
2023/10/19 12:02:19;;;;;;;8.27;7.40;;;;;;;;;;5007592;28;20133;-88
2023/10/19 12:04:45;;;;;;;9.52;7.90;;;;;;;;;;5017598;28;20128;-88
2023/10/19 12:07:14;;;;;;;9.82;8.10;;;;;;;;;;5007109;28;20156;-89
2023/10/19 12:09:41;;;;;;;9.35;7.45;;;;;;;;;;4994257;28;20045;-88
2023/10/19 12:12:08;;;;;;;12.55;9.48;;;;;;;;;;5018033;28;20037;-88
2023/10/19 12:14:35;;;;;;;8.13;7.30;;;;;;;;;;4997740;28;20048;-89
2023/10/19 12:17:02;;;;;;;9.48;7.60;;;;;;;;;;4987662;28;20042;-87
2023/10/19 12:19:30;;;;;;;7.47;6.78;;;;;;;;;;5020071;28;20397;-86
2023/10/19 12:21:56;;;;;;;8.50;7.70;;;;;;;;;;5020906;28;20124;-87
2023/10/19 12:24:23;;;;;;;7.85;7.15;;;;;;;;;;4996959;28;20549;-86
2023/10/19 12:26:50;;;;;;;8.68;7.78;;;;;;;;;;4992082;28;20037;-87
2023/10/19 12:29:20;;;;;;;7.95;7.15;;;;;;;;;;4997471;28;20072;-87
2023/10/19 12:31:47;;;;;;;6.70;6.00;;;;;;;;;;5012970;28;20049;-86
2023/10/19 12:34:13;;;;;;;7.75;6.97;;;;;;;;;;4993714;28;20080;-87
2023/10/19 12:36:41;;;;;;;7.07;5.85;;;;;;;;;;5013822;28;20132;-85
2023/10/19 12:39:08;;;;;;;6.53;5.70;;;;;;;;;;5029221;28;20392;-84
2023/10/19 12:41:37;;;;;;;5.85;5.25;;;;;;;;;;5016573;28;20539;-87
2023/10/19 12:44:12;;;;;;;7.18;5.07;;;;;;;;;;4986013;28;20139;-86
2023/10/19 12:46:38;;;;;;;6.93;5.65;;;;;;;;;;4976359;28;20048;-87
2023/10/19 12:49:16;;;;;;;6.93;6.28;;;;;;;;;;4998287;28;20175;-87
2023/10/19 12:51:44;;;;;;;8.40;6.90;;;;;;;;;;5005425;28;20109;-87
2023/10/19 12:54:13;;;;;;;9.10;6.65;;;;;;;;;;4999641;28;20040;-87
2023/10/19 12:56:40;;;;;;;6.95;6.22;;;;;;;;;;4988125;28;20128;-86
2023/10/19 12:59:06;;;;;;;6.93;5.80;;;;;;;;;;5022878;28;20037;-87
2023/10/19 13:01:35;;;;;;;8.82;6.60;;;;;;;;;;5003184;28;20092;-87
2023/10/19 13:04:18;;;;;;;8.25;6.25;;;;;;;;;;5002827;28;20049;-87
2023/10/19 13:06:45;;;;;;;6.82;5.70;;;;;;;;;;5002252;28;20102;-86
2023/10/19 13:09:11;;;;;;;6.97;5.50;;;;;;;;;;5002498;28;20051;-87
2023/10/19 13:11:41;;;;;;;9.82;5.40;;;;;;;;;;4988143;28;20041;-87
2023/10/19 13:14:07;;;;;;;8.10;5.35;;;;;;;;;;5018978;28;20055;-86
2023/10/19 13:16:33;;;;;;;8.50;6.25;;;;;;;;;;5002082;28;20037;-86
2023/10/19 13:19:08;;;;;;;9.77;6.97;;;;;;;;;;5004767;28;20129;-86
2023/10/19 13:21:34;;;;;;;9.27;6.47;;;;;;;;;;4999814;28;20132;-86
2023/10/19 13:24:01;;;;;;;10.73;6.57;;;;;;;;;;4989005;28;20095;-87
2023/10/19 13:26:28;;;;;;;14.35;6.85;;;;;;;;;;5002813;28;20049;-86
2023/10/19 13:28:55;;;;;;;14.10;6.75;;;;;;;;;;4991681;28;20052;-84
2023/10/19 13:33:55;;;;;;;10.15;7.65;;;;;;;;;;5043035;28;20048;-83
2023/10/19 13:36:21;;;;;;;8.90;6.47;;;;;;;;;;5027539;28;20040;-84
2023/10/19 13:38:47;;;;;;;12.27;7.25;;;;;;;;;;5026313;28;20040;-83
2023/10/19 13:41:16;;;;;;;13.55;8.70;;;;;;;;;;5009905;28;20057;-84
2023/10/19 13:43:42;;;;;;;12.25;7.70;;;;;;;;;;5017953;28;20037;-82
2023/10/19 13:46:08;;;;;;;11.82;7.78;;;;;;;;;;4995228;28;20138;-82
2023/10/19 13:48:35;;;;;;;10.85;8.13;;;;;;;;;;5001439;28;20068;-83
2023/10/19 13:51:12;;;;;;;12.90;8.85;;;;;;;;;;5030922;28;20036;-83
2023/10/19 13:53:38;;;;;;;13.10;8.23;;;;;;;;;;5035192;28;20040;-83
2023/10/19 13:56:08;;;;;;;12.48;9.10;;;;;;;;;;5027431;28;20041;-83
2023/10/19 13:58:34;;;;;;;13.35;8.60;;;;;;;;;;5010920;28;20033;-85
2023/10/19 14:01:01;;;;;;;14.90;9.20;;;;;;;;;;5014269;28;20132;-87
2023/10/19 14:03:27;;;;;;;13.55;9.55;;;;;;;;;;5031311;28;20087;-86
2023/10/19 14:05:56;;;;;;;14.15;8.88;;;;;;;;;;5011772;28;20496;-86
2023/10/19 14:08:22;;;;;;;12.20;8.57;;;;;;;;;;5029500;28;20124;-86
2023/10/19 14:10:48;;;;;;;14.43;8.63;;;;;;;;;;5013120;28;20041;-86
2023/10/19 14:13:15;;;;;;;12.38;8.88;;;;;;;;;;5027308;28;20045;-86
2023/10/19 14:15:42;;;;;;;17.85;9.55;;;;;;;;;;5032911;28;20033;-85
2023/10/19 14:18:08;;;;;;;14.50;9.27;;;;;;;;;;5029569;28;20052;-85
2023/10/19 14:20:35;;;;;;;15.40;9.40;;;;;;;;;;5015479;28;20435;-86
2023/10/19 14:23:04;;;;;;;17.65;9.35;;;;;;;;;;5029715;28;20480;-86
2023/10/19 14:25:30;;;;;;;15.27;9.57;;;;;;;;;;5024876;28;20045;-85
2023/10/19 14:28:00;;;;;;;13.40;9.65;;;;;;;;;;5015303;28;20033;-84
2023/10/19 14:30:30;;;;;;;14.68;10.40;;;;;;;;;;5032304;28;20140;-86
2023/10/19 14:32:56;;;;;;;16.70;10.18;;;;;;;;;;5014778;28;20053;-86
2023/10/19 14:35:25;;;;;;;15.73;11.27;;;;;;;;;;5016365;28;20483;-84
2023/10/19 14:37:54;;;;;;;18.65;12.20;;;;;;;;;;5027602;28;20045;-85
2023/10/19 14:40:21;;;;;;;20.75;12.02;;;;;;;;;;5027963;28;20077;-85
2023/10/19 14:42:48;;;;;;;22.48;12.30;;;;;;;;;;5028298;28;20076;-85
2023/10/19 14:45:16;;;;;;;25.20;14.38;;;;;;;;;;5009045;28;20056;-86
2023/10/19 14:47:42;;;;;;;23.35;13.00;;;;;;;;;;5005902;28;20056;-85
2023/10/19 14:50:13;;;;;;;23.50;13.68;;;;;;;;;;5011157;28;20037;-85
2023/10/19 14:52:40;;;;;;;23.42;13.43;;;;;;;;;;4999098;28;20126;-86
2023/10/19 14:55:06;;;;;;;26.50;14.88;;;;;;;;;;5009066;28;20111;-86
2023/10/19 14:57:33;;;;;;;20.10;12.98;;;;;;;;;;4996086;28;20075;-86
2023/10/19 15:00:15;;;;;;;21.30;13.73;;;;;;;;;;5015342;28;20041;-86
2023/10/19 15:02:45;;;;;;;25.88;14.60;;;;;;;;;;5044391;28;20486;-85